Kahului, HI (96732)

9:33 PM HST on November 27, 2014 (GMT -1000)
Kehalani | Change Station
CLOSE
Current Station
Personal Weather Station
Location: Wailuku, HI
Elevation: 358 ft
Nearby Weather Stations
Active Advisory: High Surf Advisory

Elev 358 ft 20.87 °N, 156.50 °W | Updated 4 minutes ago

Scattered Clouds
Scattered Clouds
73.4 °F
Feels Like 75 °F
N
7.3
Wind Variable Wind from NW

Today
High -- | Low -- °F
--% Chance of Precip.
Yesterday
High -- | Low -- °F
Precip. -- in
6:43 AM 5:43 PM
Waxing Crescent, 37% visible
Pressure 30.10 in
Visibility 10.0 miles
Clouds Scattered Clouds 4000 ft
Heat Index 75 °F
Dew Point 63 °F
Humidity 70%
Rainfall 0.00 in
Snow Depth Not available.
UV 0 out of 12
Pollen Not available.
Air Quality Not available.
Flu Activity Not available.
METAR PHOG 280654Z 05013G22KT 10SM SCT040 24/16 A3009 RMK AO2 SLP193 T02390161 $

More Conditions Fewer Conditions

Pressure 30.10 in
Visibility 10.0 miles
Clouds Scattered Clouds 4000 ft
Heat Index 75 °F
Dew Point 63 °F
Humidity 70%
Rainfall 0.00 in
Snow Depth Not available.
UV 0 out of 12
Pollen Not available.
Air Quality Not available.
Flu Activity Not available.
METAR PHOG 280654Z 05013G22KT 10SM SCT040 24/16 A3009 RMK AO2 SLP193 T02390161 $

More Conditions Fewer Conditions

10-Day Weather Forecast

Almanac

Astronomy

Nov. 27, 2014 Rise Set
Actual Time
Civil Twilight
Nautical Twilight
Astronomical Twilight
Moon
Length of Visible Light
Length of Day
Tomorrow will be .
, % of the Moon is Illuminated

Today's Extremes

State Highs State Lows

Community

WunderPhotos

Upload Photos

1,774,190 photos uploaded!

WunderBlogs® & News

Nearby

Air Quality

  Air Quality AQ Index Pollutant
Not available.

Snow Depth

Station Depth Elevation

Earthquake Activity

City Distance Mag. Time & Date
Minimum magnitude displayed is 2.5.

Coastal Water Temperatures

Place Temperature

Nearby Weather Stations